createdAt,value
2019-05-22T00:01:38.209Z,2.63
2019-05-22T00:04:15.510Z,2.47
2019-05-22T00:06:45.914Z,2.80
2019-05-22T00:09:23.900Z,3.17
2019-05-22T00:11:53.703Z,2.70
2019-05-22T00:14:24.752Z,2.90
2019-05-22T00:16:54.469Z,2.60
2019-05-22T00:19:24.311Z,3.47
2019-05-22T00:21:55.553Z,3.87
2019-05-22T00:24:25.137Z,3.80
2019-05-22T00:26:55.766Z,4.23
2019-05-22T00:29:25.228Z,3.47
2019-05-22T00:31:55.876Z,3.70
2019-05-22T00:34:26.083Z,4.13
2019-05-22T00:36:56.753Z,3.77
2019-05-22T00:39:27.824Z,4.10
2019-05-22T00:41:57.214Z,3.77
2019-05-22T00:44:29.263Z,3.90
2019-05-22T00:47:00.544Z,3.77
2019-05-22T00:49:30.525Z,4.00
2019-05-22T00:52:19.159Z,4.60
2019-05-22T00:54:54.213Z,4.70
2019-05-22T00:57:29.507Z,4.03
2019-05-22T01:00:03.827Z,4.00
2019-05-22T01:02:35.847Z,4.40
2019-05-22T01:05:05.943Z,4.90
2019-05-22T01:07:40.273Z,5.17
2019-05-22T01:10:11.655Z,4.63
2019-05-22T01:12:43.351Z,4.45
2019-05-22T01:15:15.218Z,4.57
2019-05-22T01:17:46.764Z,4.73
2019-05-22T01:20:17.945Z,5.50
2019-05-22T01:22:49.147Z,4.27
2019-05-22T01:25:20.778Z,4.37
2019-05-22T01:27:50.313Z,4.63
2019-05-22T01:30:39.913Z,4.83
2019-05-22T01:33:23.767Z,4.73
2019-05-22T01:36:03.468Z,4.57
2019-05-22T01:38:34.764Z,4.70
2019-05-22T01:41:14.543Z,5.30
2019-05-22T01:43:44.080Z,5.50
2019-05-22T01:46:15.752Z,5.80
2019-05-22T01:48:46.066Z,5.47
2019-05-22T01:51:16.458Z,5.87
2019-05-22T01:53:46.731Z,5.50
2019-05-22T01:56:18.079Z,6.20
2019-05-22T01:58:48.015Z,6.27
2019-05-22T02:01:19.028Z,6.67
2019-05-22T02:03:48.590Z,6.97
2019-05-22T02:06:19.553Z,8.13
2019-05-22T02:08:53.345Z,8.13
2019-05-22T02:11:23.430Z,7.80
2019-05-22T02:13:56.759Z,8.00
2019-05-22T02:16:27.656Z,8.33
2019-05-22T02:18:57.469Z,7.70
2019-05-22T02:21:28.181Z,8.28
2019-05-22T02:23:58.235Z,8.53
2019-05-22T02:26:29.066Z,8.27
2019-05-22T02:29:00.177Z,9.07
2019-05-22T02:31:30.486Z,8.53
2019-05-22T02:34:02.668Z,9.30
2019-05-22T02:36:34.084Z,9.40
2019-05-22T02:39:05.159Z,8.90
2019-05-22T02:41:46.575Z,10.10
2019-05-22T02:44:17.400Z,10.03
2019-05-22T02:46:47.476Z,9.97
2019-05-22T02:49:18.266Z,11.03
2019-05-22T02:51:48.688Z,11.23
2019-05-22T02:54:18.361Z,12.20
2019-05-22T02:56:48.065Z,12.17
2019-05-22T02:59:18.098Z,13.63
2019-05-22T03:01:48.198Z,12.53
2019-05-22T03:04:19.525Z,12.83
2019-05-22T03:06:50.217Z,14.47
2019-05-22T03:09:24.584Z,13.83
2019-05-22T03:12:01.058Z,15.20
2019-05-22T03:14:32.235Z,13.77
2019-05-22T03:17:04.162Z,14.97
2019-05-22T03:19:44.870Z,14.98
2019-05-22T03:22:20.749Z,16.43
2019-05-22T03:24:51.501Z,17.13
2019-05-22T03:27:24.493Z,16.20
2019-05-22T03:29:55.299Z,17.03
2019-05-22T03:32:25.462Z,16.67
2019-05-22T03:34:55.082Z,17.37
2019-05-22T03:37:25.369Z,17.67
2019-05-22T03:39:55.102Z,17.97
2019-05-22T03:42:24.560Z,17.23
2019-05-22T03:44:55.774Z,17.97
2019-05-22T03:47:25.504Z,18.03
2019-05-22T03:49:55.263Z,17.40
2019-05-22T03:52:25.396Z,18.77
2019-05-22T03:54:55.880Z,20.50
2019-05-22T03:57:25.615Z,19.60
2019-05-22T03:59:55.214Z,18.93
2019-05-22T04:02:24.682Z,19.00
2019-05-22T04:04:54.821Z,20.53
2019-05-22T04:07:24.291Z,18.47
2019-05-22T04:09:55.333Z,20.77
2019-05-22T04:12:24.787Z,20.27
2019-05-22T04:14:54.622Z,21.20
2019-05-22T04:17:25.419Z,20.27
2019-05-22T04:19:55.780Z,20.73
2019-05-22T04:22:25.513Z,20.90
2019-05-22T04:24:55.196Z,21.20
2019-05-22T04:27:25.183Z,20.30
2019-05-22T04:29:55.875Z,20.47
2019-05-22T04:32:29.762Z,19.50
2019-05-22T04:34:59.446Z,18.33
2019-05-22T04:37:29.457Z,19.07
2019-05-22T04:40:25.867Z,20.83
2019-05-22T04:42:56.272Z,18.70
2019-05-22T04:45:26.787Z,21.17
2019-05-22T04:48:01.258Z,20.20
2019-05-22T04:50:30.971Z,20.57
2019-05-22T04:53:01.336Z,20.27
2019-05-22T04:55:31.199Z,21.20
2019-05-22T04:58:11.175Z,22.67
2019-05-22T05:00:41.032Z,23.00
2019-05-22T05:03:11.844Z,24.10
2019-05-22T05:05:45.821Z,22.17
2019-05-22T05:08:15.354Z,22.27
2019-05-22T05:10:47.709Z,22.57
2019-05-22T05:13:17.574Z,21.90
2019-05-22T05:15:47.256Z,22.40
2019-05-22T05:18:16.799Z,22.07
2019-05-22T05:20:46.456Z,21.83
2019-05-22T05:23:16.278Z,20.77
2019-05-22T05:25:46.398Z,22.30
2019-05-22T05:28:15.936Z,20.90
2019-05-22T05:30:45.407Z,21.20
2019-05-22T05:33:15.539Z,20.37
2019-05-22T05:35:45.280Z,19.65
2019-05-22T05:38:15.709Z,19.27
2019-05-22T05:40:46.349Z,18.50
2019-05-22T05:43:15.883Z,20.77
2019-05-22T05:45:48.430Z,21.97
2019-05-22T05:48:19.824Z,21.90
2019-05-22T05:51:08.493Z,21.53
2019-05-22T05:54:10.693Z,21.30
2019-05-22T05:56:41.332Z,22.07
2019-05-22T05:59:12.356Z,21.93
2019-05-22T06:01:43.750Z,21.37
2019-05-22T06:04:13.336Z,24.13
2019-05-22T06:06:46.089Z,26.13
2019-05-22T06:09:19.993Z,25.43
2019-05-22T06:11:53.822Z,24.33
2019-05-22T06:14:29.677Z,24.73
2019-05-22T06:17:38.699Z,24.77
2019-05-22T06:20:11.817Z,23.20
2019-05-22T06:22:42.700Z,25.20
2019-05-22T06:25:12.465Z,24.07
2019-05-22T06:27:43.633Z,23.37
2019-05-22T06:30:16.543Z,25.20
2019-05-22T06:33:10.281Z,24.02
2019-05-22T06:35:40.371Z,24.97
2019-05-22T06:38:28.010Z,22.97
2019-05-22T06:40:57.559Z,22.17
2019-05-22T06:43:32.120Z,22.45
2019-05-22T06:46:01.663Z,23.17
2019-05-22T06:48:31.394Z,23.87
2019-05-22T06:51:01.356Z,22.17
2019-05-22T06:53:30.767Z,20.77
2019-05-22T06:56:00.349Z,21.93
2019-05-22T06:58:29.873Z,22.70
2019-05-22T07:00:59.439Z,21.40
2019-05-22T07:03:28.887Z,21.20
2019-05-22T07:05:58.604Z,22.47
2019-05-22T07:08:28.743Z,23.10
2019-05-22T07:10:58.753Z,22.67
2019-05-22T07:13:29.805Z,24.23
2019-05-22T07:16:00.509Z,22.50
2019-05-22T07:18:31.944Z,21.17
2019-05-22T07:21:01.444Z,23.10
2019-05-22T07:23:32.098Z,23.17
2019-05-22T07:26:02.247Z,23.10
2019-05-22T07:28:32.123Z,23.53
2019-05-22T07:31:02.366Z,23.13
2019-05-22T07:33:32.722Z,23.33
2019-05-22T07:36:09.958Z,23.60
2019-05-22T07:38:34.653Z,22.33
2019-05-22T07:41:06.001Z,22.07
2019-05-22T07:43:35.524Z,21.47
2019-05-22T07:46:05.042Z,23.00
2019-05-22T07:48:34.671Z,22.07
2019-05-22T07:51:05.934Z,22.23
2019-05-22T07:53:35.598Z,21.75
2019-05-22T07:56:08.633Z,22.43
2019-05-22T07:58:38.583Z,20.43
2019-05-22T08:01:07.979Z,20.47
2019-05-22T08:03:38.256Z,20.03
2019-05-22T08:06:08.469Z,20.30
2019-05-22T08:08:38.420Z,19.67
2019-05-22T08:11:09.612Z,20.10
2019-05-22T08:13:39.751Z,19.17
2019-05-22T08:16:09.780Z,18.80
2019-05-22T08:18:39.633Z,18.20
2019-05-22T08:21:09.441Z,18.30
2019-05-22T08:23:39.871Z,19.10
2019-05-22T08:26:11.149Z,19.17
2019-05-22T08:28:40.672Z,18.57
2019-05-22T08:31:10.901Z,17.67
2019-05-22T08:33:40.684Z,17.57
2019-05-22T08:36:10.175Z,17.43
2019-05-22T08:38:40.236Z,18.07
2019-05-22T08:41:10.937Z,16.83
2019-05-22T08:44:11.536Z,17.50
2019-05-22T08:46:13.807Z,17.17
2019-05-22T08:48:48.021Z,18.60
2019-05-22T08:51:15.941Z,16.73
2019-05-22T08:53:48.085Z,16.07
2019-05-22T08:56:16.908Z,17.63
2019-05-22T08:58:47.656Z,17.27
2019-05-22T09:01:17.459Z,18.50
2019-05-22T09:03:47.395Z,18.20
2019-05-22T09:06:16.952Z,17.67
2019-05-22T09:08:46.914Z,18.00
2019-05-22T09:11:16.611Z,16.80
2019-05-22T09:13:47.790Z,17.77
2019-05-22T09:16:18.105Z,17.87
2019-05-22T09:18:47.621Z,17.23
2019-05-22T09:21:17.402Z,18.37
2019-05-22T09:23:47.388Z,18.33
2019-05-22T09:26:18.781Z,17.97
2019-05-22T09:28:48.494Z,18.07
2019-05-22T09:31:18.306Z,18.30
2019-05-22T09:33:48.141Z,20.83
2019-05-22T09:36:17.739Z,20.63
2019-05-22T09:38:47.312Z,20.63
2019-05-22T09:41:17.237Z,19.87
2019-05-22T09:43:46.997Z,19.17
2019-05-22T09:46:18.025Z,19.83
2019-05-22T09:48:48.016Z,21.93
2019-05-22T09:51:17.663Z,21.20
2019-05-22T09:53:48.111Z,22.23
2019-05-22T09:56:18.168Z,21.70
2019-05-22T09:58:48.008Z,20.87
2019-05-22T10:01:17.995Z,21.37
2019-05-22T10:03:48.100Z,22.70
2019-05-22T10:06:17.762Z,20.47
2019-05-22T10:08:47.239Z,21.53
2019-05-22T10:11:17.066Z,20.03
2019-05-22T10:13:46.979Z,19.73
2019-05-22T10:16:17.021Z,21.50
2019-05-22T10:18:46.906Z,20.52
2019-05-22T10:21:17.368Z,19.93
2019-05-22T10:23:47.123Z,19.60
2019-05-22T10:26:16.963Z,20.00
2019-05-22T10:28:50.468Z,20.77
2019-05-22T10:31:21.782Z,21.20
2019-05-22T10:33:52.093Z,21.60
2019-05-22T10:36:21.983Z,21.50
2019-05-22T10:38:51.417Z,21.60
2019-05-22T10:41:21.140Z,21.60
2019-05-22T10:43:51.377Z,20.13
2019-05-22T10:46:20.815Z,19.17
2019-05-22T10:48:50.659Z,19.27
2019-05-22T10:51:20.200Z,18.03
2019-05-22T10:53:49.875Z,19.07
2019-05-22T10:56:19.336Z,17.77
2019-05-22T10:58:48.823Z,19.40
2019-05-22T11:01:19.560Z,19.67
2019-05-22T11:03:49.756Z,18.67
2019-05-22T11:06:19.642Z,18.10
2019-05-22T11:08:49.121Z,18.17
2019-05-22T11:11:18.773Z,19.17
2019-05-22T11:14:00.782Z,18.83
2019-05-22T11:16:19.411Z,18.80
2019-05-22T11:18:49.003Z,19.30
2019-05-22T11:21:18.452Z,19.07
2019-05-22T11:23:52.641Z,18.93
2019-05-22T11:26:19.076Z,18.57
2019-05-22T11:28:49.396Z,19.17
2019-05-22T11:31:18.848Z,18.63
2019-05-22T11:33:48.886Z,18.10
2019-05-22T11:36:18.605Z,19.03
2019-05-22T11:38:48.122Z,19.20
2019-05-22T11:41:18.044Z,18.83
2019-05-22T11:43:47.807Z,18.73
2019-05-22T11:46:17.346Z,19.30
2019-05-22T11:48:47.155Z,19.23
2019-05-22T11:51:16.976Z,18.47
2019-05-22T11:53:46.862Z,17.52
2019-05-22T11:56:16.241Z,17.10
2019-05-22T11:58:45.950Z,17.13
2019-05-22T12:01:15.477Z,16.97
2019-05-22T12:03:45.111Z,16.53
2019-05-22T12:06:15.158Z,16.00
2019-05-22T12:08:45.592Z,17.85
2019-05-22T12:11:16.220Z,19.30
2019-05-22T12:13:46.181Z,17.37
2019-05-22T12:16:16.029Z,17.73
2019-05-22T12:18:45.417Z,16.83
2019-05-22T12:21:15.119Z,18.03
2019-05-22T12:23:44.995Z,17.48
2019-05-22T12:26:14.575Z,20.20
2019-05-22T12:28:44.185Z,19.33
2019-05-22T12:31:14.501Z,19.20
2019-05-22T12:33:44.089Z,18.33
2019-05-22T12:36:14.129Z,18.27
2019-05-22T12:38:44.309Z,18.33
2019-05-22T12:41:14.386Z,18.07
2019-05-22T12:43:44.917Z,18.60
2019-05-22T12:46:15.075Z,17.80
2019-05-22T12:48:45.219Z,18.82
2019-05-22T12:51:15.188Z,18.20
2019-05-22T12:53:45.084Z,17.87
2019-05-22T12:56:14.508Z,18.03
2019-05-22T12:58:44.336Z,18.47
2019-05-22T13:01:14.693Z,16.60
2019-05-22T13:03:44.890Z,16.77
2019-05-22T13:06:14.383Z,17.63
2019-05-22T13:08:44.055Z,18.10
2019-05-22T13:11:13.587Z,18.23
2019-05-22T13:13:43.380Z,18.23
2019-05-22T13:16:12.948Z,17.67
2019-05-22T13:18:42.401Z,17.97
2019-05-22T13:21:12.359Z,16.57
2019-05-22T13:23:44.139Z,16.77
2019-05-22T13:26:13.975Z,15.93
2019-05-22T13:28:44.853Z,16.33
2019-05-22T13:31:14.870Z,17.70
2019-05-22T13:33:45.405Z,17.60
2019-05-22T13:36:15.654Z,17.70
2019-05-22T13:38:45.359Z,19.17
2019-05-22T13:41:15.725Z,17.90
2019-05-22T13:43:45.248Z,19.07
2019-05-22T13:46:15.478Z,19.70
2019-05-22T13:48:45.199Z,20.30
2019-05-22T13:51:15.511Z,18.93
2019-05-22T13:53:45.319Z,19.47
2019-05-22T13:56:15.135Z,20.37
2019-05-22T13:58:45.392Z,21.12
2019-05-22T14:01:15.208Z,21.57
2019-05-22T14:03:44.651Z,21.27
2019-05-22T14:06:14.161Z,21.27
2019-05-22T14:08:43.771Z,20.30
2019-05-22T14:11:13.304Z,21.63
2019-05-22T14:13:43.477Z,20.97
2019-05-22T14:16:13.699Z,20.57
2019-05-22T14:18:43.214Z,20.00
2019-05-22T14:21:13.018Z,21.43
2019-05-22T14:23:42.473Z,18.40
2019-05-22T14:26:12.030Z,19.77
2019-05-22T14:28:41.793Z,18.33
2019-05-22T14:31:11.415Z,18.77
2019-05-22T14:33:41.221Z,18.20
2019-05-22T14:36:11.542Z,17.33
2019-05-22T14:38:46.568Z,18.30
2019-05-22T14:41:16.171Z,17.20
2019-05-22T14:43:46.365Z,17.05
2019-05-22T14:46:16.088Z,16.43
2019-05-22T14:48:45.565Z,15.93
2019-05-22T14:51:15.169Z,15.43
2019-05-22T14:53:45.598Z,15.43
2019-05-22T14:56:15.130Z,16.00
2019-05-22T14:58:44.609Z,15.17
2019-05-22T15:01:14.761Z,15.53
2019-05-22T15:03:45.127Z,15.60
2019-05-22T15:06:15.216Z,16.90
2019-05-22T15:08:44.679Z,17.07
2019-05-22T15:11:15.279Z,16.73
2019-05-22T15:13:45.104Z,16.53
2019-05-22T15:16:14.643Z,17.47
2019-05-22T15:18:44.523Z,16.00
2019-05-22T15:21:16.745Z,16.73
2019-05-22T15:23:46.876Z,17.07
2019-05-22T15:26:16.834Z,16.57
2019-05-22T15:28:46.553Z,16.93
2019-05-22T15:31:17.801Z,16.43
2019-05-22T15:33:47.503Z,18.00
2019-05-22T15:36:18.871Z,16.73
2019-05-22T15:38:48.579Z,16.13
2019-05-22T15:41:18.302Z,16.00
2019-05-22T15:43:52.059Z,15.80
2019-05-22T15:46:19.951Z,15.77
2019-05-22T15:48:49.835Z,13.93
2019-05-22T15:51:22.846Z,13.67
2019-05-22T15:53:55.435Z,13.70
2019-05-22T15:56:31.004Z,12.87
2019-05-22T15:59:01.348Z,15.70
2019-05-22T16:01:30.880Z,13.97
2019-05-22T16:04:00.416Z,12.80
2019-05-22T16:06:30.007Z,11.43
2019-05-22T16:08:59.623Z,11.70
2019-05-22T16:11:29.944Z,10.25
2019-05-22T16:13:59.685Z,11.00
2019-05-22T16:16:31.235Z,11.87
2019-05-22T16:19:03.242Z,10.00
2019-05-22T16:21:33.426Z,10.03
2019-05-22T16:24:03.194Z,9.50
2019-05-22T16:26:32.726Z,9.10
2019-05-22T16:29:02.467Z,9.73
2019-05-22T16:31:32.692Z,9.93
2019-05-22T16:34:02.786Z,6.83
2019-05-22T16:36:33.239Z,7.47
2019-05-22T16:39:03.319Z,6.90
2019-05-22T16:41:33.137Z,6.97
2019-05-22T16:44:02.656Z,6.70
2019-05-22T16:46:33.639Z,6.90
2019-05-22T16:49:03.723Z,6.10
2019-05-22T16:51:33.381Z,6.33
2019-05-22T16:54:05.194Z,6.67
2019-05-22T16:56:35.633Z,7.23
2019-05-22T16:59:08.731Z,6.93
2019-05-22T17:01:56.925Z,6.20
2019-05-22T17:04:09.617Z,6.90
2019-05-22T17:06:40.309Z,6.87
2019-05-22T17:09:11.386Z,7.07
2019-05-22T17:11:41.170Z,8.80
2019-05-22T17:14:11.990Z,9.00
2019-05-22T17:16:43.179Z,10.97
2019-05-22T17:19:26.286Z,8.43
2019-05-22T17:21:44.749Z,7.57
2019-05-22T17:24:15.064Z,7.80
2019-05-22T17:26:44.800Z,6.90
2019-05-22T17:29:14.788Z,7.70
2019-05-22T17:31:44.875Z,6.80
2019-05-22T17:34:33.057Z,6.30
2019-05-22T17:37:06.256Z,6.43
2019-05-22T17:39:36.625Z,6.83
2019-05-22T17:42:07.943Z,6.60
2019-05-22T17:44:38.316Z,6.13
2019-05-22T17:47:09.134Z,7.37
2019-05-22T17:49:38.959Z,6.30
2019-05-22T17:52:12.012Z,6.40
2019-05-22T17:54:40.213Z,5.67
2019-05-22T17:57:10.528Z,5.57
2019-05-22T17:59:40.143Z,5.13
2019-05-22T18:02:11.319Z,5.27
2019-05-22T18:04:41.012Z,5.87
2019-05-22T18:07:10.717Z,5.33
2019-05-22T18:09:40.963Z,5.60
2019-05-22T18:12:11.013Z,5.23
2019-05-22T18:14:40.758Z,5.20
2019-05-22T18:17:11.044Z,5.50
2019-05-22T18:19:41.105Z,5.30
2019-05-22T18:22:12.287Z,5.23
2019-05-22T18:24:41.971Z,5.17
2019-05-22T18:27:11.687Z,5.53
2019-05-22T18:29:41.190Z,4.97
2019-05-22T18:32:11.427Z,5.20
2019-05-22T18:34:40.943Z,6.43
2019-05-22T18:37:11.209Z,10.77
2019-05-22T18:39:42.241Z,13.90
2019-05-22T18:42:12.057Z,7.97
2019-05-22T18:44:41.764Z,7.00
2019-05-22T18:47:11.768Z,6.57
2019-05-22T18:49:41.235Z,6.93
2019-05-22T18:52:11.439Z,7.57
2019-05-22T18:54:41.048Z,8.07
2019-05-22T18:57:10.813Z,6.60
2019-05-22T18:59:40.250Z,6.10
2019-05-22T19:02:09.732Z,6.07
2019-05-22T19:04:39.409Z,6.37
2019-05-22T19:07:08.959Z,5.60
2019-05-22T19:09:38.752Z,5.53
2019-05-22T19:12:08.362Z,6.27
2019-05-22T19:14:38.156Z,6.50
2019-05-22T19:17:07.844Z,6.40
2019-05-22T19:19:38.584Z,6.07
2019-05-22T19:22:14.779Z,5.97
2019-05-22T19:24:39.871Z,6.28
2019-05-22T19:27:09.444Z,6.40
2019-05-22T19:29:39.060Z,6.67
2019-05-22T19:32:08.746Z,6.13
2019-05-22T19:34:38.251Z,7.53
2019-05-22T19:37:07.735Z,7.60
2019-05-22T19:39:37.411Z,7.60
2019-05-22T19:42:07.871Z,7.77
2019-05-22T19:44:37.533Z,8.60
2019-05-22T19:47:08.705Z,8.40
2019-05-22T19:49:38.315Z,8.37
2019-05-22T19:52:08.535Z,8.33
2019-05-22T19:54:38.420Z,7.83
2019-05-22T19:57:09.165Z,7.90
2019-05-22T19:59:38.972Z,8.57
2019-05-22T20:02:10.451Z,8.00
2019-05-22T20:04:40.313Z,8.07
2019-05-22T20:07:11.095Z,7.90
2019-05-22T20:09:41.744Z,8.50
2019-05-22T20:12:13.170Z,8.13
2019-05-22T20:14:43.176Z,7.90
2019-05-22T20:17:12.905Z,8.47
2019-05-22T20:19:42.739Z,8.50
2019-05-22T20:22:12.477Z,9.03
2019-05-22T20:24:42.089Z,8.27
2019-05-22T20:27:11.902Z,9.00
2019-05-22T20:29:41.419Z,8.33
2019-05-22T20:32:11.956Z,9.07
2019-05-22T20:34:41.740Z,8.87
2019-05-22T20:37:11.347Z,9.20
2019-05-22T20:39:41.054Z,10.03
2019-05-22T20:42:13.974Z,11.03
2019-05-22T20:44:44.072Z,14.40
2019-05-22T20:47:13.924Z,16.10
2019-05-22T20:49:44.890Z,13.17
2019-05-22T20:52:14.456Z,15.67
2019-05-22T20:54:45.106Z,15.47
2019-05-22T20:57:19.612Z,11.93
2019-05-22T20:59:47.721Z,11.20
2019-05-22T21:02:18.590Z,10.83
2019-05-22T21:04:50.159Z,12.73
2019-05-22T21:07:26.505Z,12.93
2019-05-22T21:09:56.505Z,16.23
2019-05-22T21:12:26.503Z,18.73
2019-05-22T21:14:56.483Z,12.30
2019-05-22T21:17:26.368Z,13.27
2019-05-22T21:19:55.995Z,15.77
2019-05-22T21:22:25.626Z,15.10
2019-05-22T21:24:55.411Z,15.53
2019-05-22T21:27:24.889Z,15.20
2019-05-22T21:29:54.471Z,15.23
2019-05-22T21:32:24.308Z,15.93
2019-05-22T21:34:54.291Z,13.60
2019-05-22T21:37:24.165Z,14.13
2019-05-22T21:39:54.647Z,12.93
2019-05-22T21:42:25.823Z,12.77
2019-05-22T21:44:55.556Z,12.27
2019-05-22T21:47:25.610Z,12.60
2019-05-22T21:49:55.437Z,12.67
2019-05-22T21:52:26.660Z,12.50
2019-05-22T21:54:56.836Z,12.17
2019-05-22T21:57:26.348Z,12.10
2019-05-22T21:59:56.055Z,12.53
2019-05-22T22:02:30.395Z,13.73
2019-05-22T22:05:00.475Z,15.07
2019-05-22T22:07:30.621Z,14.67
2019-05-22T22:10:00.584Z,16.30
2019-05-22T22:12:30.958Z,17.43
2019-05-22T22:15:00.979Z,16.77
2019-05-22T22:17:30.780Z,16.87
2019-05-22T22:20:01.323Z,17.10
2019-05-22T22:22:31.529Z,15.97
2019-05-22T22:25:01.826Z,15.53
2019-05-22T22:27:31.432Z,14.77
2019-05-22T22:30:02.895Z,14.10
2019-05-22T22:32:33.935Z,15.57
2019-05-22T22:35:03.877Z,13.53
2019-05-22T22:37:34.065Z,15.40
2019-05-22T22:40:04.736Z,13.10
2019-05-22T22:42:36.916Z,13.47
2019-05-22T22:45:09.295Z,12.43
2019-05-22T22:47:42.716Z,13.32
2019-05-22T22:50:13.711Z,12.67
2019-05-22T22:52:43.238Z,13.28
2019-05-22T22:55:13.082Z,12.33
2019-05-22T22:57:43.649Z,12.98
2019-05-22T23:00:15.334Z,12.10
2019-05-22T23:02:46.732Z,12.70
2019-05-22T23:05:16.739Z,12.17
2019-05-22T23:07:47.557Z,13.13
2019-05-22T23:10:17.633Z,13.23
2019-05-22T23:12:47.431Z,14.03
2019-05-22T23:15:18.485Z,15.13
2019-05-22T23:17:48.418Z,14.97
2019-05-22T23:20:17.290Z,14.80
2019-05-22T23:23:07.073Z,16.57
2019-05-22T23:25:37.440Z,14.87
2019-05-22T23:28:08.305Z,15.40
2019-05-22T23:30:38.199Z,15.17
2019-05-22T23:33:07.671Z,15.97
2019-05-22T23:35:37.253Z,16.10
2019-05-22T23:38:07.421Z,14.37
2019-05-22T23:40:37.518Z,14.27
2019-05-22T23:43:07.464Z,13.70
2019-05-22T23:45:37.467Z,14.70
2019-05-22T23:48:16.126Z,14.83
2019-05-22T23:50:47.245Z,15.23
2019-05-22T23:53:16.741Z,14.70
2019-05-22T23:55:46.335Z,14.87
2019-05-22T23:58:17.733Z,15.23
